createdAt,value
2022-11-25T00:01:17.726Z,6.90
2022-11-25T00:03:46.167Z,6.90
2022-11-25T00:06:24.266Z,6.90
2022-11-25T00:09:12.314Z,6.90
2022-11-25T00:11:41.883Z,6.90
2022-11-25T00:14:12.240Z,6.90
2022-11-25T00:16:42.510Z,6.50
2022-11-25T00:19:11.919Z,7.00
2022-11-25T00:21:38.487Z,7.00
2022-11-25T00:24:07.112Z,7.00
2022-11-25T00:26:35.865Z,7.00
2022-11-25T00:29:05.144Z,7.00
2022-11-25T00:31:35.492Z,7.00
2022-11-25T00:34:02.928Z,7.00
2022-11-25T00:36:32.439Z,7.10
2022-11-25T00:39:03.664Z,7.30
2022-11-25T00:41:49.157Z,7.20
2022-11-25T00:44:37.562Z,7.20
2022-11-25T00:47:15.226Z,7.80
2022-11-25T00:49:44.720Z,7.20
2022-11-25T00:52:15.708Z,7.20
2022-11-25T00:54:42.779Z,7.20
2022-11-25T00:57:09.380Z,7.10
2022-11-25T00:59:35.976Z,7.10
2022-11-25T01:02:02.679Z,7.10
2022-11-25T01:04:29.566Z,7.10
2022-11-25T01:06:56.911Z,7.00
2022-11-25T01:09:23.935Z,7.00
2022-11-25T01:11:51.374Z,7.70
2022-11-25T01:14:19.402Z,7.00
2022-11-25T01:16:46.194Z,7.00
2022-11-25T01:19:13.285Z,7.10
2022-11-25T01:21:40.411Z,7.00
2022-11-25T01:24:07.908Z,7.00
2022-11-25T01:26:35.843Z,7.70
2022-11-25T01:29:06.109Z,7.00
2022-11-25T01:31:35.315Z,6.90
2022-11-25T01:34:07.872Z,7.00
2022-11-25T01:36:34.725Z,7.00
2022-11-25T01:39:01.401Z,7.10
2022-11-25T01:41:30.865Z,7.10
2022-11-25T01:44:14.512Z,7.00
2022-11-25T01:46:59.640Z,7.00
2022-11-25T01:49:29.232Z,7.00
2022-11-25T01:52:01.778Z,7.00
2022-11-25T01:54:33.530Z,7.00
2022-11-25T01:57:06.251Z,7.00
2022-11-25T01:59:37.323Z,7.00
2022-11-25T02:02:04.178Z,7.00
2022-11-25T02:04:35.232Z,7.00
2022-11-25T02:07:12.427Z,7.00
2022-11-25T02:09:42.576Z,7.00
2022-11-25T02:12:09.918Z,7.00
2022-11-25T02:14:36.830Z,7.00
2022-11-25T02:17:03.776Z,7.10
2022-11-25T02:19:43.479Z,7.00
2022-11-25T02:22:15.285Z,7.00
2022-11-25T02:24:46.697Z,7.00
2022-11-25T02:27:13.768Z,7.00
2022-11-25T02:29:42.006Z,7.00
2022-11-25T02:32:08.681Z,7.00
2022-11-25T02:34:35.597Z,6.90
2022-11-25T02:37:02.493Z,6.90
2022-11-25T02:39:29.172Z,6.90
2022-11-25T02:41:59.867Z,6.90
2022-11-25T02:44:27.126Z,6.90
2022-11-25T02:46:53.767Z,6.80
2022-11-25T02:49:20.386Z,6.80
2022-11-25T02:51:47.123Z,6.80
2022-11-25T02:54:15.556Z,6.80
2022-11-25T02:56:42.523Z,6.80
2022-11-25T02:59:09.897Z,6.80
2022-11-25T03:01:38.297Z,6.70
2022-11-25T03:04:05.379Z,6.70
2022-11-25T03:06:32.651Z,6.70
2022-11-25T03:08:59.518Z,6.70
2022-11-25T03:11:46.167Z,6.70
2022-11-25T03:14:12.804Z,6.80
2022-11-25T03:16:39.456Z,6.60
2022-11-25T03:19:06.262Z,6.60
2022-11-25T03:21:32.967Z,6.60
2022-11-25T03:23:59.767Z,6.60
2022-11-25T03:26:26.670Z,6.60
2022-11-25T03:28:53.342Z,5.50
2022-11-25T03:31:20.099Z,6.60
2022-11-25T03:33:46.727Z,6.70
2022-11-25T03:36:13.347Z,6.70
2022-11-25T03:38:40.072Z,6.60
2022-11-25T03:41:06.916Z,6.60
2022-11-25T03:43:35.475Z,6.60
2022-11-25T03:46:02.263Z,6.60
2022-11-25T03:48:29.000Z,6.60
2022-11-25T03:50:56.056Z,6.60
2022-11-25T03:53:22.716Z,6.70
2022-11-25T03:55:49.374Z,6.70
2022-11-25T03:58:16.031Z,6.70
2022-11-25T04:00:42.617Z,6.60
2022-11-25T04:03:09.532Z,6.50
2022-11-25T04:05:36.155Z,6.50
2022-11-25T04:08:02.911Z,6.40
2022-11-25T04:10:29.535Z,6.40
2022-11-25T04:12:56.217Z,6.40
2022-11-25T04:15:22.861Z,6.40
2022-11-25T04:17:49.528Z,6.40
2022-11-25T04:20:16.445Z,6.40
2022-11-25T04:22:43.435Z,6.30
2022-11-25T04:25:10.717Z,6.30
2022-11-25T04:27:38.409Z,6.90
2022-11-25T04:30:06.222Z,6.40
2022-11-25T04:32:32.909Z,6.40
2022-11-25T04:34:59.549Z,6.40
2022-11-25T04:37:26.272Z,6.40
2022-11-25T04:39:52.850Z,6.40
2022-11-25T04:42:36.440Z,6.40
2022-11-25T04:45:23.065Z,6.40
2022-11-25T04:47:51.683Z,6.40
2022-11-25T04:50:22.132Z,6.50
2022-11-25T04:52:48.853Z,6.40
2022-11-25T04:55:15.497Z,6.50
2022-11-25T04:57:42.216Z,6.50
2022-11-25T05:00:09.657Z,6.50
2022-11-25T05:02:36.481Z,6.50
2022-11-25T05:05:03.345Z,6.50
2022-11-25T05:07:30.170Z,6.50
2022-11-25T05:09:57.498Z,6.40
2022-11-25T05:12:28.985Z,6.40
2022-11-25T05:14:56.407Z,6.30
2022-11-25T05:17:26.623Z,6.40
2022-11-25T05:19:53.674Z,6.40
2022-11-25T05:22:23.695Z,6.40
2022-11-25T05:24:50.359Z,6.40
2022-11-25T05:27:17.888Z,7.10
2022-11-25T05:29:44.662Z,6.40
2022-11-25T05:32:11.550Z,6.40
2022-11-25T05:34:38.647Z,6.50
2022-11-25T05:37:06.156Z,6.40
2022-11-25T05:39:33.120Z,6.50
2022-11-25T05:41:59.842Z,6.50
2022-11-25T05:44:26.626Z,6.60
2022-11-25T05:46:53.692Z,6.80
2022-11-25T05:49:21.012Z,6.70
2022-11-25T05:51:48.021Z,6.70
2022-11-25T05:54:14.709Z,6.70
2022-11-25T05:56:41.456Z,6.70
2022-11-25T05:59:08.127Z,6.70
2022-11-25T06:01:34.886Z,6.80
2022-11-25T06:04:03.183Z,6.80
2022-11-25T06:06:30.539Z,6.80
2022-11-25T06:08:57.195Z,6.80
2022-11-25T06:11:25.499Z,6.80
2022-11-25T06:13:52.206Z,6.70
2022-11-25T06:16:21.418Z,6.70
2022-11-25T06:18:48.654Z,6.70
2022-11-25T06:21:15.802Z,6.80
2022-11-25T06:23:45.388Z,6.80
2022-11-25T06:26:20.942Z,6.70
2022-11-25T06:28:48.700Z,6.60
2022-11-25T06:31:18.976Z,6.60
2022-11-25T06:33:50.585Z,6.60
2022-11-25T06:36:18.012Z,6.50
2022-11-25T06:38:49.443Z,6.60
2022-11-25T06:41:16.964Z,6.60
2022-11-25T06:43:43.828Z,6.60
2022-11-25T06:46:15.654Z,6.70
2022-11-25T06:48:44.253Z,6.90
2022-11-25T06:51:13.070Z,8.90
2022-11-25T06:53:40.758Z,9.30
2022-11-25T06:56:17.364Z,9.00
2022-11-25T06:58:45.129Z,8.20
2022-11-25T07:01:26.466Z,7.70
2022-11-25T07:03:55.573Z,7.50
2022-11-25T07:06:22.775Z,7.30
2022-11-25T07:08:49.826Z,7.20
2022-11-25T07:11:20.729Z,7.20
2022-11-25T07:13:48.284Z,7.10
2022-11-25T07:16:15.502Z,7.10
2022-11-25T07:18:42.300Z,7.00
2022-11-25T07:21:10.545Z,7.00
2022-11-25T07:23:38.079Z,7.10
2022-11-25T07:26:10.201Z,7.10
2022-11-25T07:28:37.530Z,7.10
2022-11-25T07:31:23.366Z,7.10
2022-11-25T07:33:53.269Z,7.00
2022-11-25T07:36:20.380Z,6.90
2022-11-25T07:38:47.358Z,7.00
2022-11-25T07:41:19.765Z,7.00
2022-11-25T07:43:48.685Z,7.00
2022-11-25T07:46:27.380Z,7.00
2022-11-25T07:48:56.086Z,7.00
2022-11-25T07:51:33.049Z,7.10
2022-11-25T07:54:01.356Z,7.10
2022-11-25T07:56:29.561Z,7.10
2022-11-25T07:58:57.301Z,7.10
2022-11-25T08:01:24.488Z,7.10
2022-11-25T08:03:52.134Z,7.20
2022-11-25T08:06:28.351Z,7.40
2022-11-25T08:08:56.564Z,7.40
2022-11-25T08:11:25.969Z,7.40
2022-11-25T08:13:53.127Z,7.40
2022-11-25T08:16:22.214Z,7.40
2022-11-25T08:18:49.597Z,7.50
2022-11-25T08:21:17.639Z,7.50
2022-11-25T08:23:49.680Z,7.60
2022-11-25T08:26:23.017Z,7.70
2022-11-25T08:28:50.481Z,7.70
2022-11-25T08:31:23.243Z,7.60
2022-11-25T08:33:51.118Z,7.50
2022-11-25T08:36:18.408Z,7.60
2022-11-25T08:38:47.005Z,7.60
2022-11-25T08:41:17.449Z,7.60
2022-11-25T08:43:44.540Z,7.60
2022-11-25T08:46:13.908Z,7.70
2022-11-25T08:48:41.519Z,7.70
2022-11-25T08:51:11.313Z,7.70
2022-11-25T08:53:39.102Z,7.70
2022-11-25T08:56:07.001Z,7.70
2022-11-25T08:58:34.712Z,7.70
2022-11-25T09:01:01.659Z,7.70
2022-11-25T09:03:31.516Z,7.70
2022-11-25T09:05:58.192Z,7.60
2022-11-25T09:08:25.784Z,7.60
2022-11-25T09:10:52.505Z,7.60
2022-11-25T09:13:19.219Z,7.60
2022-11-25T09:15:45.915Z,7.60
2022-11-25T09:18:14.223Z,7.70
2022-11-25T09:20:41.404Z,7.70
2022-11-25T09:23:09.169Z,7.60
2022-11-25T09:25:36.603Z,7.60
2022-11-25T09:28:04.075Z,7.60
2022-11-25T09:30:31.381Z,7.70
2022-11-25T09:32:58.087Z,7.70
2022-11-25T09:35:25.637Z,7.80
2022-11-25T09:37:52.522Z,7.80
2022-11-25T09:40:21.621Z,7.80
2022-11-25T09:43:28.240Z,7.70
2022-11-25T09:46:43.237Z,7.80
2022-11-25T09:49:34.185Z,7.60
2022-11-25T09:52:12.621Z,7.80
2022-11-25T09:54:44.356Z,7.70
2022-11-25T09:57:38.780Z,7.70
2022-11-25T10:00:16.577Z,7.70
2022-11-25T10:02:49.473Z,7.70
2022-11-25T10:05:27.450Z,7.70
2022-11-25T10:08:00.808Z,7.70
2022-11-25T10:10:44.803Z,7.70
2022-11-25T10:13:41.263Z,7.70
2022-11-25T10:16:20.130Z,7.70
2022-11-25T10:19:19.941Z,7.70
2022-11-25T10:21:46.939Z,7.60
2022-11-25T10:24:18.414Z,7.60
2022-11-25T10:26:49.772Z,7.60
2022-11-25T10:29:27.363Z,7.70
2022-11-25T10:32:17.808Z,7.70
2022-11-25T10:34:53.389Z,7.70
2022-11-25T10:37:30.965Z,7.80
2022-11-25T10:39:57.766Z,7.80
2022-11-25T10:42:27.721Z,7.90
2022-11-25T10:44:54.905Z,7.90
2022-11-25T10:47:43.016Z,7.90
2022-11-25T10:50:37.290Z,7.90
2022-11-25T10:53:29.613Z,8.00
2022-11-25T10:56:17.312Z,8.00
2022-11-25T10:58:44.648Z,8.00
2022-11-25T11:01:20.632Z,8.10
2022-11-25T11:03:53.626Z,8.10
2022-11-25T11:06:41.805Z,8.20
2022-11-25T11:09:27.328Z,8.20
2022-11-25T11:11:53.943Z,8.30
2022-11-25T11:14:21.129Z,8.40
2022-11-25T11:16:56.310Z,8.50
2022-11-25T11:19:25.957Z,8.40
2022-11-25T11:21:53.286Z,8.40
2022-11-25T11:24:27.895Z,8.40
2022-11-25T11:27:09.566Z,8.30
2022-11-25T11:29:36.866Z,8.30
2022-11-25T11:32:06.396Z,8.30
2022-11-25T11:35:13.824Z,8.30
2022-11-25T11:37:45.663Z,8.30
2022-11-25T11:40:31.846Z,8.20
2022-11-25T11:43:33.580Z,8.30
2022-11-25T11:46:23.142Z,8.20
2022-11-25T11:49:30.214Z,8.10
2022-11-25T11:52:16.050Z,8.10
2022-11-25T11:54:57.749Z,8.20
2022-11-25T11:57:52.634Z,8.30
2022-11-25T12:00:20.708Z,8.30
2022-11-25T12:03:01.414Z,8.30
2022-11-25T12:05:33.653Z,8.40
2022-11-25T12:08:12.064Z,8.50
2022-11-25T12:10:44.710Z,8.50
2022-11-25T12:13:27.106Z,8.50
2022-11-25T12:16:25.856Z,8.60
2022-11-25T12:19:21.522Z,8.60
2022-11-25T12:22:00.142Z,8.60
2022-11-25T12:25:01.826Z,8.60
2022-11-25T12:27:57.526Z,8.70
2022-11-25T12:30:26.136Z,8.70
2022-11-25T12:33:20.202Z,8.60
2022-11-25T12:36:00.947Z,8.70
2022-11-25T12:38:45.617Z,8.70
2022-11-25T12:41:40.036Z,8.60
2022-11-25T12:44:18.969Z,9.60
2022-11-25T12:46:48.820Z,8.70
2022-11-25T12:49:25.795Z,8.70
2022-11-25T12:51:58.051Z,8.70
2022-11-25T12:54:37.057Z,8.70
2022-11-25T12:57:33.973Z,8.80
2022-11-25T13:00:47.281Z,8.80
2022-11-25T13:03:38.618Z,8.80
2022-11-25T13:06:44.156Z,8.80
2022-11-25T13:09:41.021Z,8.80
2022-11-25T13:12:44.079Z,8.80
2022-11-25T13:15:42.207Z,8.80
2022-11-25T13:18:16.965Z,8.80
2022-11-25T13:20:54.911Z,8.80
2022-11-25T13:23:25.081Z,8.90
2022-11-25T13:25:53.391Z,8.90
2022-11-25T13:28:35.183Z,8.90
2022-11-25T13:31:23.234Z,9.00
2022-11-25T13:33:49.857Z,9.00
2022-11-25T13:36:20.142Z,9.00
2022-11-25T13:38:49.867Z,9.00
2022-11-25T13:41:16.452Z,9.10
2022-11-25T13:44:01.633Z,9.10
2022-11-25T13:46:39.600Z,9.10
2022-11-25T13:49:21.593Z,9.10
2022-11-25T13:51:53.879Z,9.20
2022-11-25T13:54:25.469Z,9.20
2022-11-25T13:57:15.015Z,9.20
2022-11-25T13:59:41.586Z,9.20
2022-11-25T14:02:27.387Z,9.20
2022-11-25T14:05:28.288Z,9.30
2022-11-25T14:08:19.827Z,9.30
2022-11-25T14:11:03.255Z,9.30
2022-11-25T14:13:56.895Z,9.30
2022-11-25T14:16:23.544Z,9.40
2022-11-25T14:19:35.571Z,9.40
2022-11-25T14:22:17.064Z,9.40
2022-11-25T14:24:47.748Z,9.40
2022-11-25T14:27:22.712Z,9.50
2022-11-25T14:29:54.117Z,9.50
2022-11-25T14:32:22.816Z,9.50
2022-11-25T14:34:56.304Z,9.50
2022-11-25T14:37:32.608Z,9.60
2022-11-25T14:40:06.594Z,9.50
2022-11-25T14:42:37.489Z,9.50
2022-11-25T14:45:19.485Z,9.50
2022-11-25T14:47:46.068Z,9.50
2022-11-25T14:53:06.275Z,9.50
2022-11-25T14:55:33.256Z,9.50
2022-11-25T14:57:59.990Z,9.50
2022-11-25T15:00:27.413Z,9.50
2022-11-25T15:03:00.541Z,9.50
2022-11-25T15:05:32.961Z,9.50
2022-11-25T15:08:14.341Z,9.50
2022-11-25T15:10:58.954Z,9.50
2022-11-25T15:13:38.841Z,9.60
2022-11-25T15:16:15.877Z,9.60
2022-11-25T15:18:50.508Z,9.60
2022-11-25T15:21:20.898Z,9.60
2022-11-25T15:23:47.582Z,9.60
2022-11-25T15:26:25.932Z,9.60
2022-11-25T15:28:57.987Z,9.70
2022-11-25T15:31:33.886Z,9.60
2022-11-25T15:34:03.659Z,9.70
2022-11-25T15:36:30.437Z,9.70
2022-11-25T15:39:14.821Z,9.70
2022-11-25T15:41:44.221Z,9.80
2022-11-25T15:44:24.048Z,9.80
2022-11-25T15:47:26.295Z,9.80
2022-11-25T15:50:00.962Z,9.80
2022-11-25T15:52:30.961Z,9.70
2022-11-25T15:55:05.227Z,9.80
2022-11-25T15:57:35.370Z,9.90
2022-11-25T16:00:13.713Z,9.80
2022-11-25T16:02:43.440Z,9.80
2022-11-25T16:05:13.445Z,9.90
2022-11-25T16:07:52.598Z,9.90
2022-11-25T16:10:23.717Z,9.90
2022-11-25T16:13:28.820Z,9.90
2022-11-25T16:16:07.120Z,9.90
2022-11-25T16:18:59.119Z,9.90
2022-11-25T16:21:48.328Z,9.90
2022-11-25T16:24:35.974Z,9.90
2022-11-25T16:27:16.418Z,10.00
2022-11-25T16:30:18.536Z,10.00
2022-11-25T16:32:45.364Z,10.00
2022-11-25T16:35:18.320Z,10.00
2022-11-25T16:37:48.851Z,10.00
2022-11-25T16:40:17.306Z,10.00
2022-11-25T16:42:48.500Z,10.10
2022-11-25T16:45:21.551Z,10.10
2022-11-25T16:47:48.150Z,10.10
2022-11-25T16:50:16.202Z,10.10
2022-11-25T16:52:43.262Z,10.10
2022-11-25T16:55:10.602Z,10.10
2022-11-25T16:57:39.063Z,10.10
2022-11-25T17:00:11.952Z,10.20
2022-11-25T17:02:38.765Z,10.10
2022-11-25T17:05:25.879Z,10.20
2022-11-25T17:07:52.827Z,10.30
2022-11-25T17:10:20.803Z,10.20
2022-11-25T17:12:48.481Z,10.20
2022-11-25T17:15:22.929Z,10.20
2022-11-25T17:17:49.834Z,10.30
2022-11-25T17:20:21.460Z,10.20
2022-11-25T17:22:48.915Z,10.20
2022-11-25T17:25:15.649Z,10.30
2022-11-25T17:27:43.289Z,10.20
2022-11-25T17:30:22.198Z,10.20
2022-11-25T17:33:03.455Z,10.30
2022-11-25T17:35:30.155Z,10.20
2022-11-25T17:37:59.464Z,10.20
2022-11-25T17:40:26.331Z,10.20
2022-11-25T17:42:53.134Z,10.20
2022-11-25T17:45:21.407Z,10.20
2022-11-25T17:47:48.583Z,10.30
2022-11-25T17:50:20.850Z,10.20
2022-11-25T17:52:48.568Z,10.30
2022-11-25T17:55:19.556Z,10.20
2022-11-25T17:57:47.442Z,10.20
2022-11-25T18:00:16.900Z,10.20
2022-11-25T18:02:43.821Z,10.20
2022-11-25T18:05:18.554Z,10.20
2022-11-25T18:07:45.242Z,10.20
2022-11-25T18:10:14.610Z,10.20
2022-11-25T18:12:42.567Z,10.50
2022-11-25T18:15:16.249Z,10.40
2022-11-25T18:17:43.209Z,10.40
2022-11-25T18:20:32.760Z,10.40
2022-11-25T18:23:00.855Z,10.30
2022-11-25T18:25:31.294Z,10.30
2022-11-25T18:27:59.866Z,10.30
2022-11-25T18:30:29.183Z,10.10
2022-11-25T18:32:57.189Z,10.00
2022-11-25T18:35:35.458Z,10.00
2022-11-25T18:38:02.923Z,10.00
2022-11-25T18:40:29.935Z,10.00
2022-11-25T18:43:00.216Z,10.00
2022-11-25T18:45:38.376Z,10.00
2022-11-25T18:48:23.367Z,10.10
2022-11-25T18:50:52.572Z,10.10
2022-11-25T18:53:19.657Z,10.10
2022-11-25T18:55:47.985Z,10.10
2022-11-25T18:58:24.143Z,10.20
2022-11-25T19:00:52.630Z,10.30
2022-11-25T19:03:24.790Z,10.30
2022-11-25T19:05:54.098Z,10.30
2022-11-25T19:08:21.037Z,10.30
2022-11-25T19:10:48.791Z,10.30
2022-11-25T19:13:19.401Z,10.30
2022-11-25T19:15:46.440Z,10.30
2022-11-25T19:18:18.660Z,10.40
2022-11-25T19:20:45.285Z,10.30
2022-11-25T19:23:21.165Z,10.20
2022-11-25T19:25:48.656Z,10.10
2022-11-25T19:28:17.034Z,10.00
2022-11-25T19:30:45.918Z,9.90
2022-11-25T19:33:26.496Z,9.90
2022-11-25T19:35:53.276Z,10.00
2022-11-25T19:38:24.980Z,9.90
2022-11-25T19:40:56.697Z,9.80
2022-11-25T19:43:28.065Z,10.60
2022-11-25T19:45:56.229Z,9.90
2022-11-25T19:48:26.938Z,9.80
2022-11-25T19:50:59.677Z,9.90
2022-11-25T19:53:33.071Z,9.90
2022-11-25T19:56:04.585Z,9.90
2022-11-25T19:58:31.356Z,10.00
2022-11-25T20:01:02.225Z,10.00
2022-11-25T20:03:31.114Z,10.40
2022-11-25T20:05:58.200Z,10.00
2022-11-25T20:08:27.672Z,10.00
2022-11-25T20:10:55.323Z,10.00
2022-11-25T20:13:26.172Z,9.90
2022-11-25T20:15:55.139Z,9.90
2022-11-25T20:18:24.141Z,9.90
2022-11-25T20:20:58.401Z,9.90
2022-11-25T20:23:29.203Z,9.90
2022-11-25T20:25:56.518Z,9.80
2022-11-25T20:28:28.336Z,9.80
2022-11-25T20:30:55.027Z,9.80
2022-11-25T20:33:24.714Z,9.80
2022-11-25T20:36:02.035Z,9.80
2022-11-25T20:38:31.562Z,9.80
2022-11-25T20:41:00.212Z,9.80
2022-11-25T20:43:33.283Z,9.80
2022-11-25T20:46:01.652Z,9.80
2022-11-25T20:48:29.497Z,9.80
2022-11-25T20:51:00.029Z,9.80
2022-11-25T20:53:28.029Z,9.80
2022-11-25T20:55:54.666Z,9.80
2022-11-25T20:58:30.911Z,9.80
2022-11-25T21:00:58.795Z,9.80
2022-11-25T21:03:26.108Z,9.80
2022-11-25T21:05:54.807Z,9.90
2022-11-25T21:08:24.951Z,9.90
2022-11-25T21:10:55.560Z,9.90
2022-11-25T21:13:28.297Z,10.00
2022-11-25T21:15:57.585Z,10.00
2022-11-25T21:18:24.566Z,10.00
2022-11-25T21:20:54.114Z,10.00
2022-11-25T21:23:33.625Z,10.00
2022-11-25T21:26:17.834Z,9.90
2022-11-25T21:28:46.891Z,9.90
2022-11-25T21:31:19.030Z,9.90
2022-11-25T21:33:47.121Z,9.90
2022-11-25T21:36:27.156Z,9.70
2022-11-25T21:39:01.661Z,9.90
2022-11-25T21:41:28.288Z,9.80
2022-11-25T21:43:55.110Z,9.90
2022-11-25T21:46:25.398Z,9.80
2022-11-25T21:48:53.026Z,9.80
2022-11-25T21:51:24.369Z,9.80
2022-11-25T21:53:52.255Z,9.80
2022-11-25T21:56:34.329Z,10.60
2022-11-25T21:59:03.036Z,11.60
2022-11-25T22:01:29.979Z,12.10
2022-11-25T22:03:56.918Z,12.30
2022-11-25T22:06:30.609Z,11.50
2022-11-25T22:08:57.685Z,10.80
2022-11-25T22:11:37.301Z,10.40
2022-11-25T22:14:11.569Z,10.20
2022-11-25T22:16:38.376Z,10.10
2022-11-25T22:19:05.459Z,10.00
2022-11-25T22:21:32.089Z,10.00
2022-11-25T22:23:58.721Z,9.90
2022-11-25T22:26:32.912Z,9.70
2022-11-25T22:29:00.924Z,9.60
2022-11-25T22:31:28.240Z,9.60
2022-11-25T22:33:55.482Z,9.50
2022-11-25T22:36:22.188Z,9.50
2022-11-25T22:38:49.003Z,9.30
2022-11-25T22:41:15.748Z,9.40
2022-11-25T22:43:49.235Z,9.40
2022-11-25T22:46:16.561Z,9.40
2022-11-25T22:48:43.612Z,9.40
2022-11-25T22:51:18.260Z,9.40
2022-11-25T22:53:45.032Z,9.30
2022-11-25T22:56:19.626Z,9.60
2022-11-25T22:58:46.713Z,9.30
2022-11-25T23:01:15.675Z,9.30
2022-11-25T23:03:43.531Z,9.30
2022-11-25T23:06:13.205Z,9.20
2022-11-25T23:08:40.158Z,9.30
2022-11-25T23:11:07.284Z,9.20
2022-11-25T23:13:33.894Z,9.20
2022-11-25T23:16:03.877Z,9.20
2022-11-25T23:18:38.648Z,9.10
2022-11-25T23:21:18.879Z,9.20
2022-11-25T23:23:45.625Z,9.10
2022-11-25T23:26:13.609Z,9.10
2022-11-25T23:28:40.449Z,9.00
2022-11-25T23:31:07.325Z,9.00
2022-11-25T23:33:38.129Z,9.20
2022-11-25T23:36:14.027Z,9.00
2022-11-25T23:38:51.270Z,9.00
2022-11-25T23:41:26.848Z,9.00
2022-11-25T23:43:53.792Z,9.00
2022-11-25T23:46:24.739Z,9.00
2022-11-25T23:48:57.307Z,9.00
2022-11-25T23:51:25.285Z,9.00
2022-11-25T23:53:52.289Z,9.00
2022-11-25T23:56:19.356Z,8.90
2022-11-25T23:58:47.325Z,8.90
